Time;durP1;ratioP1;P1;durP2;ratioP2;P2;SDS_P1;SDS_P2;PMS_P1;PMS_P2;Temp;Humidity;BMP_temperature;BMP_pressure;BME280_temperature;BME280_humidity;BME280_pressure;Samples;Min_cycle;Max_cycle;Signal;HPM_P1;HPM_P2
2021/11/11 00:00:08;;;;;;;14.23;11.48;;;;;;;;;;4984575;28;20042;-43
2021/11/11 00:02:35;;;;;;;12.85;11.13;;;;;;;;;;4974642;28;20044;-42
2021/11/11 00:05:02;;;;;;;13.40;11.13;;;;;;;;;;4983133;28;20054;-42
2021/11/11 00:07:32;;;;;;;11.57;10.68;;;;;;;;;;4978848;28;20101;-42
2021/11/11 00:10:05;;;;;;;13.05;9.02;;;;;;;;;;4981466;28;20046;-40
2021/11/11 00:12:33;;;;;;;11.05;10.07;;;;;;;;;;4986752;28;20456;-42
2021/11/11 00:15:08;;;;;;;11.50;9.95;;;;;;;;;;4987311;28;20053;-45
2021/11/11 00:17:35;;;;;;;10.13;9.48;;;;;;;;;;4978451;28;20042;-42
2021/11/11 00:20:03;;;;;;;12.25;10.23;;;;;;;;;;4986980;28;20121;-42
2021/11/11 00:22:33;;;;;;;11.38;10.20;;;;;;;;;;4986857;28;20058;-42
2021/11/11 00:25:00;;;;;;;11.05;9.90;;;;;;;;;;4988131;28;20495;-42
2021/11/11 00:27:34;;;;;;;12.30;11.02;;;;;;;;;;4982443;28;20038;-42
2021/11/11 00:30:01;;;;;;;13.32;10.80;;;;;;;;;;4993537;28;20042;-42
2021/11/11 00:32:27;;;;;;;16.77;11.43;;;;;;;;;;4989277;28;20534;-43
2021/11/11 00:34:54;;;;;;;11.85;10.57;;;;;;;;;;4989560;28;20038;-43
2021/11/11 00:37:27;;;;;;;10.63;9.63;;;;;;;;;;4992560;28;20113;-39
2021/11/11 00:39:55;;;;;;;11.57;10.00;;;;;;;;;;4985670;28;20035;-42
2021/11/11 00:42:21;;;;;;;9.65;8.52;;;;;;;;;;4980407;28;20130;-43
2021/11/11 00:44:48;;;;;;;11.05;10.07;;;;;;;;;;4991517;28;20035;-42
2021/11/11 00:47:15;;;;;;;12.38;11.45;;;;;;;;;;4986505;28;20042;-42
2021/11/11 00:49:42;;;;;;;10.73;9.68;;;;;;;;;;4992283;28;20042;-43
2021/11/11 00:52:09;;;;;;;13.30;11.68;;;;;;;;;;4989924;28;20034;-42
2021/11/11 00:54:36;;;;;;;12.55;10.98;;;;;;;;;;4990884;28;20042;-44
2021/11/11 00:57:03;;;;;;;14.30;9.80;;;;;;;;;;4990830;28;20048;-42
2021/11/11 00:59:29;;;;;;;11.43;10.35;;;;;;;;;;4989716;28;20047;-42
2021/11/11 01:01:56;;;;;;;10.90;10.02;;;;;;;;;;4990806;28;20046;-42
2021/11/11 01:04:30;;;;;;;10.23;9.52;;;;;;;;;;4989273;28;20038;-41
2021/11/11 01:06:57;;;;;;;12.02;10.48;;;;;;;;;;4983661;28;20546;-43
2021/11/11 01:09:24;;;;;;;12.02;10.25;;;;;;;;;;4990566;28;20129;-42
2021/11/11 01:12:03;;;;;;;9.00;7.70;;;;;;;;;;4983502;28;20049;-42
2021/11/11 01:14:29;;;;;;;9.93;8.95;;;;;;;;;;4983565;28;20118;-43
2021/11/11 01:16:59;;;;;;;11.45;8.00;;;;;;;;;;4986616;28;20039;-42
2021/11/11 01:19:26;;;;;;;13.93;9.15;;;;;;;;;;4983865;28;20537;-42
2021/11/11 01:21:53;;;;;;;7.20;6.57;;;;;;;;;;4991907;28;20070;-42
2021/11/11 01:24:20;;;;;;;7.80;7.22;;;;;;;;;;4988854;28;20047;-42
2021/11/11 01:27:13;;;;;;;9.27;7.07;;;;;;;;;;4991672;28;20138;-42
2021/11/11 01:29:39;;;;;;;8.60;6.07;;;;;;;;;;4986504;28;20058;-42
2021/11/11 01:32:06;;;;;;;8.48;7.78;;;;;;;;;;4986831;28;20047;-42
2021/11/11 01:34:33;;;;;;;10.77;7.40;;;;;;;;;;4972550;28;20953;-41
2021/11/11 01:37:00;;;;;;;8.98;6.65;;;;;;;;;;4986206;28;20045;-41
2021/11/11 01:39:34;;;;;;;7.80;7.07;;;;;;;;;;4982466;28;20046;-42
2021/11/11 01:42:02;;;;;;;8.10;7.50;;;;;;;;;;4987662;28;20046;-42
2021/11/11 01:44:36;;;;;;;6.03;5.63;;;;;;;;;;4984797;28;20042;-42
2021/11/11 01:47:02;;;;;;;7.43;6.75;;;;;;;;;;4989266;28;20109;-42
2021/11/11 01:49:29;;;;;;;7.25;5.35;;;;;;;;;;4987787;28;20109;-43
2021/11/11 01:51:56;;;;;;;6.28;5.60;;;;;;;;;;4987411;28;20121;-42
2021/11/11 01:54:23;;;;;;;6.30;6.05;;;;;;;;;;4982772;28;20062;-42
2021/11/11 01:56:49;;;;;;;6.35;5.97;;;;;;;;;;4983663;28;20058;-42
2021/11/11 01:59:16;;;;;;;10.68;6.18;;;;;;;;;;4973564;28;20133;-43
2021/11/11 02:01:43;;;;;;;13.50;6.70;;;;;;;;;;4987724;28;20435;-42
2021/11/11 02:04:10;;;;;;;8.13;7.00;;;;;;;;;;4986513;28;20043;-44
2021/11/11 02:06:41;;;;;;;5.60;4.90;;;;;;;;;;4973204;28;20146;-42
2021/11/11 02:09:08;;;;;;;7.88;7.15;;;;;;;;;;4988130;28;20186;-41
2021/11/11 02:11:34;;;;;;;6.85;6.20;;;;;;;;;;4983957;28;20042;-42
2021/11/11 02:14:10;;;;;;;6.57;5.97;;;;;;;;;;4986429;28;20045;-42
2021/11/11 02:16:37;;;;;;;9.65;5.65;;;;;;;;;;4987783;28;20041;-42
2021/11/11 02:19:05;;;;;;;5.30;4.97;;;;;;;;;;4983818;28;20042;-42
2021/11/11 02:21:31;;;;;;;6.13;5.72;;;;;;;;;;4987958;28;20088;-44
2021/11/11 02:23:59;;;;;;;6.40;5.30;;;;;;;;;;4985593;28;20061;-42
2021/11/11 02:26:25;;;;;;;7.22;5.57;;;;;;;;;;4991210;28;20058;-42
2021/11/11 02:28:52;;;;;;;9.57;5.32;;;;;;;;;;4987008;28;20078;-42
2021/11/11 02:31:19;;;;;;;7.32;4.85;;;;;;;;;;4973446;28;20073;-42
2021/11/11 02:33:55;;;;;;;5.70;5.30;;;;;;;;;;4986976;28;20051;-42
2021/11/11 02:36:22;;;;;;;6.32;5.63;;;;;;;;;;4980112;28;20118;-43
2021/11/11 02:38:57;;;;;;;5.55;5.18;;;;;;;;;;4988485;28;20505;-42
2021/11/11 02:41:32;;;;;;;;;;;;;;;;;;4988107;28;20513;-42
2021/11/11 02:43:58;;;;;;;4.90;4.68;;;;;;;;;;4990159;28;19968;-42
2021/11/11 02:46:25;;;;;;;6.47;5.90;;;;;;;;;;4988241;28;20050;-42
2021/11/11 02:48:52;;;;;;;6.40;5.90;;;;;;;;;;4988074;28;20070;-43
2021/11/11 02:51:19;;;;;;;6.85;6.25;;;;;;;;;;4981094;28;20031;-42
2021/11/11 02:53:46;;;;;;;4.47;4.28;;;;;;;;;;4981956;28;20039;-42
2021/11/11 02:56:26;;;;;;;4.70;4.38;;;;;;;;;;4982235;28;20062;-42
2021/11/11 02:59:02;;;;;;;3.72;3.53;;;;;;;;;;4989898;28;20042;-43
2021/11/11 03:01:29;;;;;;;6.43;5.85;;;;;;;;;;4986653;28;20544;-44
2021/11/11 03:03:55;;;;;;;6.10;5.90;;;;;;;;;;4989327;28;20043;-42
2021/11/11 03:06:22;;;;;;;10.05;5.10;;;;;;;;;;4989254;28;20096;-42
2021/11/11 03:08:49;;;;;;;6.60;6.28;;;;;;;;;;4983573;28;20058;-42
2021/11/11 03:11:15;;;;;;;6.47;5.90;;;;;;;;;;4983645;28;20050;-42
2021/11/11 03:13:42;;;;;;;5.75;5.35;;;;;;;;;;4984511;28;20045;-42
2021/11/11 03:16:09;;;;;;;5.45;5.03;;;;;;;;;;4981700;28;20062;-42
2021/11/11 03:18:39;;;;;;;7.35;6.85;;;;;;;;;;4988067;28;20034;-44
2021/11/11 03:21:06;;;;;;;11.65;6.93;;;;;;;;;;4980134;28;20038;-41
2021/11/11 03:23:32;;;;;;;7.65;6.95;;;;;;;;;;4980045;28;20387;-42
2021/11/11 03:25:59;;;;;;;9.15;8.48;;;;;;;;;;4986676;28;20050;-42
2021/11/11 03:28:25;;;;;;;9.30;7.88;;;;;;;;;;4986964;28;20104;-42
2021/11/11 03:30:52;;;;;;;7.28;6.65;;;;;;;;;;4979602;28;20053;-42
2021/11/11 03:33:19;;;;;;;7.20;6.70;;;;;;;;;;4982601;28;20042;-42
2021/11/11 03:35:46;;;;;;;8.07;7.35;;;;;;;;;;4974736;28;20034;-42
2021/11/11 03:38:12;;;;;;;9.95;8.32;;;;;;;;;;4984955;28;20062;-42
2021/11/11 03:40:41;;;;;;;8.30;7.78;;;;;;;;;;4980504;28;20042;-41
2021/11/11 03:43:08;;;;;;;10.88;7.10;;;;;;;;;;4986723;28;20105;-43
2021/11/11 03:45:35;;;;;;;7.28;6.57;;;;;;;;;;4991604;28;20038;-42
2021/11/11 03:48:02;;;;;;;8.18;7.40;;;;;;;;;;4978608;28;20097;-46
2021/11/11 03:50:30;;;;;;;7.53;6.90;;;;;;;;;;4992539;28;20437;-43
2021/11/11 03:53:04;;;;;;;7.95;7.25;;;;;;;;;;4986014;28;20117;-47
2021/11/11 03:55:30;;;;;;;7.68;7.07;;;;;;;;;;4994388;28;20065;-43
2021/11/11 03:57:57;;;;;;;6.90;6.32;;;;;;;;;;4991178;28;20073;-46
2021/11/11 04:00:24;;;;;;;7.53;6.90;;;;;;;;;;4982166;28;20406;-42
2021/11/11 04:03:01;;;;;;;6.18;5.70;;;;;;;;;;4992517;28;20445;-45
2021/11/11 04:05:28;;;;;;;8.38;6.43;;;;;;;;;;4991529;28;20104;-42
2021/11/11 04:08:09;;;;;;;13.57;7.07;;;;;;;;;;4981809;28;20058;-44
2021/11/11 04:10:42;;;;;;;7.43;6.82;;;;;;;;;;4991740;28;20050;-44
2021/11/11 04:13:09;;;;;;;;;;;;;;;;;;4984001;28;20026;-44
2021/11/11 04:15:53;;;;;;;7.22;6.75;;;;;;;;;;4981348;28;19926;-39
2021/11/11 04:18:20;;;;;;;5.90;5.50;;;;;;;;;;4988616;28;20038;-47
2021/11/11 04:20:46;;;;;;;6.30;6.10;;;;;;;;;;4991200;28;20090;-44
2021/11/11 04:23:22;;;;;;;6.95;6.22;;;;;;;;;;4992868;28;20045;-42
2021/11/11 04:26:23;;;;;;;5.88;5.53;;;;;;;;;;4989955;28;20065;-42
2021/11/11 04:29:02;;;;;;;5.55;5.13;;;;;;;;;;4934765;29;20068;-45
2021/11/11 04:31:51;;;;;;;5.65;5.07;;;;;;;;;;4941354;29;20121;-44
2021/11/11 04:34:17;;;;;;;5.53;5.03;;;;;;;;;;4928290;29;20131;-46
2021/11/11 05:02:58;;;;;;;5.82;5.25;;;;;;;;;;4917008;29;20060;-45
2021/11/11 05:04:55;;;;;;;6.18;5.70;;;;;;;;;;4920409;29;20082;-48
2021/11/11 05:07:25;;;;;;;10.30;4.60;;;;;;;;;;4929722;29;20505;-48
2021/11/11 05:09:51;;;;;;;6.63;6.07;;;;;;;;;;4928541;29;20087;-45
2021/11/11 05:12:18;;;;;;;6.65;6.05;;;;;;;;;;4915447;29;20087;-47
2021/11/11 05:14:45;;;;;;;6.25;5.85;;;;;;;;;;4925877;29;20066;-42
2021/11/11 05:17:12;;;;;;;6.70;5.38;;;;;;;;;;4916610;29;20048;-43
2021/11/11 05:19:42;;;;;;;6.43;6.03;;;;;;;;;;4930144;29;20039;-44
2021/11/11 05:22:08;;;;;;;7.03;6.30;;;;;;;;;;4929272;29;20584;-43
2021/11/11 05:25:01;;;;;;;8.88;5.10;;;;;;;;;;4922023;29;20055;-42
2021/11/11 05:27:28;;;;;;;4.80;4.57;;;;;;;;;;4910479;29;20052;-43
2021/11/11 05:29:55;;;;;;;5.70;5.05;;;;;;;;;;4901432;29;20525;-42
2021/11/11 05:32:26;;;;;;;5.22;4.88;;;;;;;;;;4900866;29;20139;-42
2021/11/11 05:34:52;;;;;;;4.88;4.57;;;;;;;;;;4923774;29;20040;-43
2021/11/11 05:37:25;;;;;;;4.85;4.65;;;;;;;;;;4929401;29;20118;-42
2021/11/11 05:39:52;;;;;;;6.53;6.07;;;;;;;;;;4922030;29;20048;-44
2021/11/11 05:42:19;;;;;;;7.40;6.85;;;;;;;;;;4926472;29;20062;-41
2021/11/11 05:44:46;;;;;;;7.00;6.50;;;;;;;;;;4930735;29;20055;-42
2021/11/11 05:47:13;;;;;;;8.02;6.50;;;;;;;;;;4926223;29;20043;-43
2021/11/11 05:49:47;;;;;;;8.07;6.40;;;;;;;;;;4926565;29;20508;-42
2021/11/11 05:52:14;;;;;;;6.13;5.63;;;;;;;;;;4929207;29;20110;-43
2021/11/11 05:54:41;;;;;;;6.45;5.82;;;;;;;;;;4925651;29;20047;-42
2021/11/11 05:57:08;;;;;;;5.85;5.20;;;;;;;;;;4920730;29;20091;-45
2021/11/11 05:59:39;;;;;;;5.93;5.63;;;;;;;;;;4922792;29;20127;-42
2021/11/11 06:02:07;;;;;;;6.20;5.68;;;;;;;;;;4927822;29;20052;-42
2021/11/11 06:04:34;;;;;;;5.90;5.57;;;;;;;;;;4964344;28;20089;-41
2021/11/11 06:07:01;;;;;;;7.70;7.00;;;;;;;;;;4987933;28;20050;-39
2021/11/11 06:09:35;;;;;;;5.35;4.95;;;;;;;;;;4990536;28;20438;-44
2021/11/11 06:12:10;;;;;;;5.60;5.30;;;;;;;;;;4990088;28;20053;-42
2021/11/11 06:14:37;;;;;;;5.10;4.80;;;;;;;;;;4988857;28;20042;-42
2021/11/11 06:17:07;;;;;;;5.40;5.03;;;;;;;;;;4990991;28;20050;-43
2021/11/11 06:19:37;;;;;;;5.10;4.80;;;;;;;;;;4986349;28;20053;-42
2021/11/11 06:22:04;;;;;;;5.30;4.82;;;;;;;;;;4988931;28;20434;-41
2021/11/11 06:24:31;;;;;;;6.32;5.97;;;;;;;;;;4991489;28;20466;-42
2021/11/11 06:26:58;;;;;;;7.10;5.40;;;;;;;;;;4988469;28;20441;-55
2021/11/11 06:29:25;;;;;;;6.10;5.63;;;;;;;;;;4980306;28;20067;-53
2021/11/11 06:31:52;;;;;;;6.75;5.18;;;;;;;;;;4985866;28;20116;-53
2021/11/11 06:34:24;;;;;;;5.63;5.23;;;;;;;;;;4979495;28;20035;-55
2021/11/11 06:36:51;;;;;;;5.55;4.82;;;;;;;;;;4991041;28;20042;-56
2021/11/11 06:39:17;;;;;;;5.20;4.90;;;;;;;;;;4988237;28;20047;-55
2021/11/11 06:41:44;;;;;;;7.95;6.18;;;;;;;;;;4990136;28;20039;-55
2021/11/11 06:44:18;;;;;;;7.10;6.38;;;;;;;;;;4990040;28;20046;-53
2021/11/11 06:46:45;;;;;;;5.95;5.40;;;;;;;;;;4980610;28;20065;-56
2021/11/11 06:49:12;;;;;;;6.38;5.80;;;;;;;;;;4990312;28;20056;-55
2021/11/11 06:51:39;;;;;;;6.85;6.22;;;;;;;;;;4983661;28;20050;-54
2021/11/11 06:54:08;;;;;;;7.07;6.63;;;;;;;;;;4981874;28;20041;-55
2021/11/11 06:56:36;;;;;;;5.32;5.03;;;;;;;;;;4989892;28;20058;-54
2021/11/11 06:59:03;;;;;;;6.70;6.18;;;;;;;;;;4984510;28;21127;-52
2021/11/11 07:01:30;;;;;;;8.90;6.28;;;;;;;;;;4987410;28;20042;-49
2021/11/11 07:03:57;;;;;;;6.70;6.30;;;;;;;;;;4982651;28;20054;-55
2021/11/11 07:06:24;;;;;;;6.75;6.13;;;;;;;;;;4976381;28;20038;-56
2021/11/11 07:08:50;;;;;;;13.93;7.70;;;;;;;;;;4977008;28;20050;-55
2021/11/11 07:11:17;;;;;;;9.30;6.72;;;;;;;;;;4982954;28;20074;-53
2021/11/11 07:13:43;;;;;;;11.30;10.20;;;;;;;;;;4984339;28;20043;-55
2021/11/11 07:16:10;;;;;;;27.15;18.35;;;;;;;;;;4988778;28;20042;-52
2021/11/11 07:18:37;;;;;;;23.15;17.83;;;;;;;;;;4987363;28;20050;-54
2021/11/11 07:21:04;;;;;;;40.67;25.38;;;;;;;;;;4990012;28;20368;-55
2021/11/11 07:23:30;;;;;;;43.25;27.88;;;;;;;;;;4986913;28;20513;-47
2021/11/11 07:25:57;;;;;;;9.43;8.63;;;;;;;;;;4988076;28;20042;-52
2021/11/11 07:28:24;;;;;;;9.75;9.15;;;;;;;;;;4981760;28;20050;-55
2021/11/11 07:30:51;;;;;;;8.77;7.95;;;;;;;;;;4984230;28;20059;-56
2021/11/11 07:33:18;;;;;;;9.52;8.68;;;;;;;;;;4988968;28;20042;-53
2021/11/11 07:35:45;;;;;;;15.35;8.77;;;;;;;;;;4986892;28;20035;-56
2021/11/11 07:38:13;;;;;;;9.45;8.75;;;;;;;;;;4986504;28;20097;-55
2021/11/11 07:40:40;;;;;;;11.25;7.78;;;;;;;;;;4989384;28;20048;-56
2021/11/11 07:43:06;;;;;;;10.02;9.27;;;;;;;;;;4987540;28;20096;-53
2021/11/11 07:45:34;;;;;;;9.27;8.38;;;;;;;;;;4988289;28;20097;-55
2021/11/11 07:48:02;;;;;;;7.07;6.72;;;;;;;;;;4986794;28;20130;-54
2021/11/11 07:50:30;;;;;;;7.53;6.95;;;;;;;;;;4988719;28;20069;-54
2021/11/11 07:52:59;;;;;;;8.95;8.25;;;;;;;;;;4988404;28;20054;-53
2021/11/11 07:55:26;;;;;;;7.22;6.85;;;;;;;;;;4986896;28;20034;-56
2021/11/11 07:57:53;;;;;;;8.00;7.15;;;;;;;;;;4989305;28;20038;-53
2021/11/11 08:00:20;;;;;;;11.88;10.68;;;;;;;;;;4986851;28;20529;-55
2021/11/11 08:02:48;;;;;;;9.18;8.13;;;;;;;;;;4979407;28;20348;-50
2021/11/11 08:05:16;;;;;;;7.53;7.07;;;;;;;;;;4988765;28;20042;-54
2021/11/11 08:07:44;;;;;;;8.43;7.70;;;;;;;;;;4985699;28;20495;-55
2021/11/11 08:10:11;;;;;;;7.53;7.00;;;;;;;;;;4970502;28;20039;-53
2021/11/11 08:12:39;;;;;;;7.57;7.13;;;;;;;;;;4980638;28;20046;-55
2021/11/11 08:15:06;;;;;;;7.90;7.38;;;;;;;;;;4981795;28;20057;-55
2021/11/11 08:17:33;;;;;;;9.38;7.85;;;;;;;;;;4988633;28;20478;-56
2021/11/11 08:20:00;;;;;;;7.13;6.82;;;;;;;;;;4985033;28;20034;-54
2021/11/11 08:22:27;;;;;;;9.65;6.90;;;;;;;;;;4988413;28;20043;-54
2021/11/11 08:24:54;;;;;;;9.73;7.55;;;;;;;;;;4988843;28;20042;-55
2021/11/11 08:27:22;;;;;;;10.07;8.40;;;;;;;;;;4987705;28;20053;-55
2021/11/11 08:29:49;;;;;;;9.07;8.20;;;;;;;;;;4988522;28;20054;-52
2021/11/11 08:32:16;;;;;;;10.27;7.43;;;;;;;;;;4989838;28;20509;-54
2021/11/11 08:34:43;;;;;;;11.07;8.68;;;;;;;;;;4990388;28;20043;-53
2021/11/11 08:37:10;;;;;;;7.22;6.80;;;;;;;;;;4992253;28;20107;-56
2021/11/11 08:39:37;;;;;;;7.88;5.45;;;;;;;;;;4990290;28;20041;-52
2021/11/11 08:42:05;;;;;;;7.20;6.45;;;;;;;;;;4992302;28;20100;-55
2021/11/11 08:44:32;;;;;;;6.28;5.80;;;;;;;;;;4990971;28;20048;-53
2021/11/11 08:46:58;;;;;;;6.57;5.50;;;;;;;;;;4991498;28;20034;-55
2021/11/11 08:49:25;;;;;;;7.32;6.70;;;;;;;;;;4991615;28;20551;-55
2021/11/11 08:51:52;;;;;;;5.95;5.65;;;;;;;;;;4989164;28;20096;-54
2021/11/11 08:54:19;;;;;;;6.15;5.65;;;;;;;;;;4975911;28;20043;-52
2021/11/11 08:56:50;;;;;;;8.90;7.40;;;;;;;;;;4991290;28;20045;-55
2021/11/11 08:59:20;;;;;;;10.27;7.25;;;;;;;;;;4990405;28;20173;-55
2021/11/11 09:01:47;;;;;;;8.18;7.43;;;;;;;;;;4979930;28;20489;-55
2021/11/11 09:04:14;;;;;;;9.27;6.50;;;;;;;;;;4986059;28;20113;-54
2021/11/11 09:06:43;;;;;;;6.63;6.00;;;;;;;;;;4990997;28;20061;-51
2021/11/11 09:09:10;;;;;;;5.78;5.47;;;;;;;;;;4991595;28;20138;-55
2021/11/11 09:11:37;;;;;;;7.40;5.60;;;;;;;;;;4989542;28;20045;-54
2021/11/11 09:14:04;;;;;;;6.40;5.80;;;;;;;;;;4992200;28;20054;-54
2021/11/11 09:16:31;;;;;;;6.00;5.28;;;;;;;;;;4989242;28;20046;-56
2021/11/11 09:18:58;;;;;;;6.55;5.55;;;;;;;;;;4984478;28;20065;-55
2021/11/11 09:21:26;;;;;;;5.55;5.03;;;;;;;;;;4985022;28;20049;-55
2021/11/11 09:23:52;;;;;;;5.18;4.85;;;;;;;;;;4982538;28;20368;-55
2021/11/11 09:26:19;;;;;;;5.22;4.65;;;;;;;;;;4992449;28;20053;-53
2021/11/11 09:28:46;;;;;;;4.78;4.20;;;;;;;;;;4988561;28;20097;-56
2021/11/11 09:31:14;;;;;;;7.82;5.35;;;;;;;;;;4984958;28;20039;-56
2021/11/11 09:33:42;;;;;;;7.15;4.88;;;;;;;;;;4984994;28;20041;-55
2021/11/11 09:36:10;;;;;;;4.20;3.72;;;;;;;;;;4989959;28;21237;-55
2021/11/11 09:38:37;;;;;;;4.22;3.92;;;;;;;;;;4991965;28;20030;-52
2021/11/11 09:41:04;;;;;;;5.63;4.88;;;;;;;;;;4988114;28;20171;-55
2021/11/11 09:43:33;;;;;;;6.53;6.03;;;;;;;;;;4989244;28;20035;-55
2021/11/11 09:46:00;;;;;;;6.15;5.75;;;;;;;;;;4991116;28;20050;-54
2021/11/11 09:48:27;;;;;;;5.63;5.20;;;;;;;;;;4983490;28;20556;-56
2021/11/11 09:50:54;;;;;;;5.93;5.20;;;;;;;;;;4990966;28;20070;-54
2021/11/11 09:53:24;;;;;;;5.00;4.65;;;;;;;;;;4989574;28;20430;-54
2021/11/11 09:58:45;;;;;;;6.60;4.65;;;;;;;;;;4991100;28;20033;-54
2021/11/11 10:01:20;;;;;;;6.50;5.15;;;;;;;;;;4989832;28;20040;-54
2021/11/11 10:03:48;;;;;;;4.88;4.20;;;;;;;;;;4980455;28;20042;-52
2021/11/11 10:06:16;;;;;;;4.85;4.18;;;;;;;;;;4987768;28;20398;-54
2021/11/11 10:08:45;;;;;;;4.30;4.03;;;;;;;;;;4987095;28;20066;-54
2021/11/11 10:11:31;;;;;;;3.10;2.92;;;;;;;;;;4990497;28;20074;-53
2021/11/11 10:14:00;;;;;;;7.90;3.17;;;;;;;;;;4990947;28;20042;-55
2021/11/11 10:16:27;;;;;;;5.85;5.55;;;;;;;;;;4989002;28;20514;-55
2021/11/11 10:18:55;;;;;;;9.07;7.75;;;;;;;;;;4990436;28;20065;-54
2021/11/11 10:21:27;;;;;;;8.55;7.93;;;;;;;;;;4986145;28;20038;-53
2021/11/11 10:23:54;;;;;;;5.88;5.45;;;;;;;;;;4976840;28;20047;-55
2021/11/11 10:26:38;;;;;;;9.90;6.72;;;;;;;;;;4990882;28;20054;-54
2021/11/11 10:29:07;;;;;;;8.60;6.72;;;;;;;;;;4989207;28;20085;-55
2021/11/11 10:31:33;;;;;;;6.28;5.65;;;;;;;;;;4989661;28;20435;-55
2021/11/11 10:34:09;;;;;;;7.57;4.55;;;;;;;;;;4990401;28;20042;-55
2021/11/11 10:36:52;;;;;;;5.70;4.45;;;;;;;;;;4986815;28;20050;-55
2021/11/11 10:39:24;;;;;;;6.85;4.57;;;;;;;;;;4990275;28;20039;-54
2021/11/11 10:41:52;;;;;;;6.28;4.75;;;;;;;;;;4989837;28;20046;-55
2021/11/11 10:44:21;;;;;;;4.97;4.60;;;;;;;;;;4989089;28;20406;-53
2021/11/11 10:46:51;;;;;;;5.65;5.13;;;;;;;;;;4990632;28;20137;-56
2021/11/11 10:49:20;;;;;;;5.63;4.68;;;;;;;;;;4988658;28;20088;-55
2021/11/11 10:51:47;;;;;;;5.05;4.63;;;;;;;;;;4976845;28;20089;-56
2021/11/11 10:54:13;;;;;;;7.57;4.53;;;;;;;;;;4989018;28;20141;-55
2021/11/11 10:56:42;;;;;;;5.78;5.38;;;;;;;;;;4988781;28;20089;-55
2021/11/11 10:59:12;;;;;;;3.55;3.35;;;;;;;;;;4989330;28;20053;-55
2021/11/11 11:01:39;;;;;;;6.93;5.47;;;;;;;;;;4987367;28;20101;-56
2021/11/11 11:04:21;;;;;;;5.18;3.53;;;;;;;;;;4987772;28;20038;-56
2021/11/11 11:06:48;;;;;;;4.55;4.15;;;;;;;;;;4989359;28;20474;-56
2021/11/11 11:09:14;;;;;;;6.35;5.90;;;;;;;;;;4987119;28;20042;-54
2021/11/11 11:11:42;;;;;;;4.38;3.70;;;;;;;;;;4972561;28;20093;-53
2021/11/11 11:14:17;;;;;;;4.50;4.13;;;;;;;;;;4988673;28;20046;-55
2021/11/11 11:16:44;;;;;;;6.35;4.53;;;;;;;;;;4985627;28;20034;-56
2021/11/11 11:19:16;;;;;;;4.45;4.07;;;;;;;;;;4983546;28;20055;-55
2021/11/11 11:21:45;;;;;;;4.78;4.38;;;;;;;;;;4984646;28;20030;-54
2021/11/11 11:24:13;;;;;;;2.97;2.67;;;;;;;;;;4988045;28;20104;-52
2021/11/11 11:26:50;;;;;;;3.20;2.83;;;;;;;;;;4988069;28;20043;-55
2021/11/11 11:29:20;;;;;;;3.03;2.45;;;;;;;;;;4988136;28;20367;-56
2021/11/11 11:32:02;;;;;;;2.97;2.83;;;;;;;;;;4988992;28;20430;-55
2021/11/11 11:34:30;;;;;;;2.60;2.43;;;;;;;;;;4988981;28;20104;-56
2021/11/11 11:36:57;;;;;;;2.10;1.77;;;;;;;;;;4987253;28;20063;-52
2021/11/11 11:39:30;;;;;;;1.50;1.33;;;;;;;;;;4990152;28;20458;-56
2021/11/11 11:41:59;;;;;;;1.13;1.02;;;;;;;;;;4987378;28;20045;-52
2021/11/11 11:44:31;;;;;;;3.85;1.73;;;;;;;;;;4987522;28;20475;-56
2021/11/11 11:47:05;;;;;;;2.30;1.30;;;;;;;;;;4989791;28;20046;-54
2021/11/11 11:49:33;;;;;;;1.95;1.58;;;;;;;;;;4986592;28;20124;-55
2021/11/11 11:52:01;;;;;;;2.88;2.33;;;;;;;;;;4988774;28;20100;-56
2021/11/11 11:55:04;;;;;;;3.38;1.42;;;;;;;;;;4987088;28;20038;-53
2021/11/11 12:00:54;;;;;;;2.35;1.63;;;;;;;;;;4986466;28;20054;-56
2021/11/11 12:11:22;;;;;;;1.17;1.17;;;;;;;;;;4986387;28;20037;-56
2021/11/11 12:16:38;;;;;;;1.10;1.10;;;;;;;;;;4991639;28;20038;-55
2021/11/11 12:39:24;;;;;;;2.70;1.00;;;;;;;;;;4987773;28;20038;-48
2021/11/11 12:41:55;;;;;;;1.33;1.23;;;;;;;;;;4981849;28;20753;-51
2021/11/11 12:44:23;;;;;;;1.35;1.25;;;;;;;;;;4992715;28;20049;-51
2021/11/11 12:46:50;;;;;;;2.00;1.10;;;;;;;;;;4986242;28;20109;-51
2021/11/11 12:49:24;;;;;;;1.83;1.63;;;;;;;;;;4984877;28;20529;-51
2021/11/11 12:52:09;;;;;;;1.63;1.48;;;;;;;;;;4990101;28;20039;-51
2021/11/11 12:54:37;;;;;;;1.02;1.00;;;;;;;;;;4986228;28;20074;-51
2021/11/11 12:57:04;;;;;;;1.63;0.90;;;;;;;;;;4991704;28;20455;-51
2021/11/11 12:59:32;;;;;;;1.20;1.20;;;;;;;;;;4991259;28;20447;-51
2021/11/11 13:02:01;;;;;;;1.20;1.20;;;;;;;;;;4990012;28;20046;-52
2021/11/11 13:04:29;;;;;;;2.45;1.40;;;;;;;;;;4991739;28;20038;-49
2021/11/11 13:07:00;;;;;;;1.77;1.10;;;;;;;;;;4989649;28;20057;-50
2021/11/11 13:09:29;;;;;;;1.33;1.23;;;;;;;;;;4988504;28;20050;-49
2021/11/11 13:12:03;;;;;;;1.52;1.10;;;;;;;;;;4990359;28;20046;-50
2021/11/11 13:14:31;;;;;;;1.40;1.20;;;;;;;;;;4988521;28;20327;-50
2021/11/11 13:16:57;;;;;;;1.17;1.10;;;;;;;;;;4989638;28;20035;-50
2021/11/11 13:19:35;;;;;;;2.17;1.48;;;;;;;;;;4989541;28;20470;-49
2021/11/11 13:22:15;;;;;;;1.10;1.00;;;;;;;;;;4979718;28;20069;-49
2021/11/11 13:25:12;;;;;;;1.95;1.50;;;;;;;;;;4991318;28;20050;-52
2021/11/11 14:28:06;;;;;;;3.00;2.15;;;;;;;;;;4966120;28;20365;-49
2021/11/11 16:00:58;;;;;;;3.08;2.88;;;;;;;;;;4987948;28;20042;-51
2021/11/11 16:27:45;;;;;;;3.90;3.65;;;;;;;;;;4970774;28;20117;-48
2021/11/11 16:30:18;;;;;;;6.78;3.63;;;;;;;;;;4986730;28;20046;-48
2021/11/11 16:32:46;;;;;;;4.13;3.75;;;;;;;;;;4987815;28;20085;-47
2021/11/11 16:35:14;;;;;;;5.82;5.43;;;;;;;;;;4989206;28;20583;-46
2021/11/11 16:37:42;;;;;;;4.30;3.60;;;;;;;;;;4984304;28;20772;-47
2021/11/11 16:40:10;;;;;;;4.22;3.83;;;;;;;;;;4985448;28;20518;-46
2021/11/11 16:42:36;;;;;;;5.57;5.07;;;;;;;;;;4986427;28;20390;-48
2021/11/11 16:45:11;;;;;;;5.78;5.22;;;;;;;;;;4986357;28;20042;-47
2021/11/11 16:47:38;;;;;;;4.75;4.40;;;;;;;;;;4983258;28;20031;-47
2021/11/11 16:50:05;;;;;;;5.63;3.63;;;;;;;;;;4985692;28;20038;-47
2021/11/11 16:52:32;;;;;;;4.78;4.47;;;;;;;;;;4988223;28;20053;-48
2021/11/11 16:54:59;;;;;;;7.55;4.13;;;;;;;;;;4989519;28;20229;-43
2021/11/11 16:57:26;;;;;;;3.13;2.90;;;;;;;;;;4984005;28;20030;-43
2021/11/11 16:59:53;;;;;;;4.60;3.55;;;;;;;;;;4989792;28;20375;-44
2021/11/11 17:02:19;;;;;;;4.45;4.07;;;;;;;;;;4989371;28;20450;-43
2021/11/11 17:04:46;;;;;;;4.10;3.80;;;;;;;;;;4991359;28;20034;-44
2021/11/11 17:07:13;;;;;;;4.80;4.43;;;;;;;;;;4987562;28;20394;-47
2021/11/11 17:09:41;;;;;;;4.75;4.38;;;;;;;;;;4987955;28;20118;-44
2021/11/11 17:12:11;;;;;;;3.95;3.67;;;;;;;;;;4980098;28;20057;-46
2021/11/11 17:14:41;;;;;;;5.95;3.55;;;;;;;;;;4985851;28;20043;-45
2021/11/11 17:17:08;;;;;;;4.20;3.80;;;;;;;;;;4984286;28;20070;-48
2021/11/11 17:19:35;;;;;;;3.72;3.53;;;;;;;;;;4989352;28;20042;-45
2021/11/11 17:22:01;;;;;;;4.30;3.97;;;;;;;;;;4986702;28;20046;-43
2021/11/11 17:24:38;;;;;;;6.65;6.00;;;;;;;;;;4991090;28;20042;-45
2021/11/11 17:29:32;;;;;;;8.32;7.63;;;;;;;;;;4987712;28;20042;-46
2021/11/11 17:31:59;;;;;;;8.98;6.30;;;;;;;;;;4985806;28;20036;-45
2021/11/11 17:34:26;;;;;;;6.88;6.28;;;;;;;;;;4981281;28;20038;-44
2021/11/11 17:36:53;;;;;;;8.32;7.03;;;;;;;;;;4990674;28;20046;-46
2021/11/11 17:39:20;;;;;;;7.13;6.80;;;;;;;;;;4985598;28;20046;-46
2021/11/11 17:41:47;;;;;;;11.35;8.82;;;;;;;;;;4988144;28;20031;-45
2021/11/11 17:44:16;;;;;;;12.65;9.80;;;;;;;;;;4991196;28;20093;-45
2021/11/11 17:46:44;;;;;;;17.73;12.48;;;;;;;;;;4983831;28;20447;-46
2021/11/11 17:49:26;;;;;;;13.20;11.98;;;;;;;;;;4984712;28;20049;-47
2021/11/11 17:52:08;;;;;;;16.77;14.63;;;;;;;;;;4987463;28;20116;-47
2021/11/11 17:54:36;;;;;;;18.23;16.23;;;;;;;;;;4989254;28;20049;-47
2021/11/11 17:57:03;;;;;;;21.50;19.27;;;;;;;;;;4981325;28;20050;-44
2021/11/11 17:59:33;;;;;;;23.40;18.40;;;;;;;;;;4983570;28;20046;-48
2021/11/11 18:02:03;;;;;;;18.23;16.17;;;;;;;;;;4988576;28;20034;-44
2021/11/11 18:04:37;;;;;;;15.70;14.40;;;;;;;;;;4990640;28;20070;-49
2021/11/11 18:07:07;;;;;;;30.83;22.15;;;;;;;;;;4988401;28;20042;-46
2021/11/11 18:09:46;;;;;;;34.05;23.13;;;;;;;;;;4988464;28;20054;-46
2021/11/11 18:12:21;;;;;;;18.08;16.17;;;;;;;;;;4988057;28;20033;-45
2021/11/11 18:14:54;;;;;;;16.25;14.55;;;;;;;;;;4979260;28;20108;-45
2021/11/11 18:17:22;;;;;;;16.42;14.25;;;;;;;;;;4982567;28;20059;-49
2021/11/11 18:19:49;;;;;;;12.00;11.02;;;;;;;;;;4985183;28;20097;-46
2021/11/11 18:22:16;;;;;;;10.63;9.68;;;;;;;;;;4981686;28;20042;-46
2021/11/11 18:24:43;;;;;;;11.88;10.68;;;;;;;;;;4982233;28;20046;-45
2021/11/11 18:27:09;;;;;;;17.75;15.95;;;;;;;;;;4985719;28;20038;-46
2021/11/11 18:29:45;;;;;;;22.48;16.88;;;;;;;;;;4987756;28;20050;-47
2021/11/11 18:32:13;;;;;;;15.48;13.50;;;;;;;;;;4984388;28;20041;-45
2021/11/11 18:34:46;;;;;;;17.65;15.63;;;;;;;;;;4984185;28;20034;-44
2021/11/11 18:37:22;;;;;;;17.75;15.98;;;;;;;;;;4987449;28;20034;-45
2021/11/11 18:39:51;;;;;;;18.02;12.60;;;;;;;;;;4987730;28;20486;-45
2021/11/11 18:42:18;;;;;;;13.85;11.30;;;;;;;;;;4986867;28;20112;-45
2021/11/11 18:44:46;;;;;;;11.27;10.38;;;;;;;;;;4984875;28;20041;-44
2021/11/11 18:47:27;;;;;;;11.85;10.75;;;;;;;;;;4983629;28;20058;-44
2021/11/11 18:49:55;;;;;;;24.13;17.00;;;;;;;;;;4989514;28;20671;-44